sensor_id;sensor_type;location;lat;lon;timestamp;temperature;humidity
43227;DHT22;28839;52.404;9.808;2023-09-18T00:03:51;18.00;99.90
43227;DHT22;28839;52.404;9.808;2023-09-18T00:10:46;18.10;99.90
43227;DHT22;28839;52.404;9.808;2023-09-18T00:17:40;18.10;99.90
43227;DHT22;28839;52.404;9.808;2023-09-18T00:24:35;18.40;99.90
43227;DHT22;28839;52.404;9.808;2023-09-18T00:31:29;18.30;99.90
43227;DHT22;28839;52.404;9.808;2023-09-18T00:38:23;18.20;99.90
43227;DHT22;28839;52.404;9.808;2023-09-18T00:45:18;18.10;99.90
43227;DHT22;28839;52.404;9.808;2023-09-18T00:52:12;18.10;99.90
43227;DHT22;28839;52.404;9.808;2023-09-18T00:59:06;18.00;99.90
43227;DHT22;28839;52.404;9.808;2023-09-18T01:06:01;17.90;99.90
43227;DHT22;28839;52.404;9.808;2023-09-18T01:12:58;17.80;99.90
43227;DHT22;28839;52.404;9.808;2023-09-18T01:19:57;17.80;99.90
43227;DHT22;28839;52.404;9.808;2023-09-18T01:26:52;17.70;99.90
43227;DHT22;28839;52.404;9.808;2023-09-18T01:33:45;17.70;99.90
43227;DHT22;28839;52.404;9.808;2023-09-18T01:40:40;17.60;99.90
43227;DHT22;28839;52.404;9.808;2023-09-18T01:47:36;17.60;99.90
43227;DHT22;28839;52.404;9.808;2023-09-18T01:54:29;17.50;99.90
43227;DHT22;28839;52.404;9.808;2023-09-18T02:01:23;17.50;99.90
43227;DHT22;28839;52.404;9.808;2023-09-18T02:08:18;17.50;99.90
43227;DHT22;28839;52.404;9.808;2023-09-18T02:15:12;17.60;99.90
43227;DHT22;28839;52.404;9.808;2023-09-18T02:22:09;17.50;99.90
43227;DHT22;28839;52.404;9.808;2023-09-18T02:29:05;17.50;99.90
43227;DHT22;28839;52.404;9.808;2023-09-18T02:35:59;17.40;99.90
43227;DHT22;28839;52.404;9.808;2023-09-18T02:42:52;17.40;99.90
43227;DHT22;28839;52.404;9.808;2023-09-18T02:49:48;17.40;99.90
43227;DHT22;28839;52.404;9.808;2023-09-18T02:56:41;17.30;99.90
43227;DHT22;28839;52.404;9.808;2023-09-18T03:03:36;17.20;99.90
43227;DHT22;28839;52.404;9.808;2023-09-18T03:10:33;17.20;99.90
43227;DHT22;28839;52.404;9.808;2023-09-18T03:17:27;17.20;99.90
43227;DHT22;28839;52.404;9.808;2023-09-18T03:24:21;17.30;99.90
43227;DHT22;28839;52.404;9.808;2023-09-18T03:31:16;17.30;99.90
43227;DHT22;28839;52.404;9.808;2023-09-18T03:38:10;17.40;99.90
43227;DHT22;28839;52.404;9.808;2023-09-18T03:45:05;17.40;99.90
43227;DHT22;28839;52.404;9.808;2023-09-18T03:52:00;17.50;99.90
43227;DHT22;28839;52.404;9.808;2023-09-18T03:58:55;17.50;99.90
43227;DHT22;28839;52.404;9.808;2023-09-18T04:05:51;17.50;99.90
43227;DHT22;28839;52.404;9.808;2023-09-18T04:12:46;17.40;99.90
43227;DHT22;28839;52.404;9.808;2023-09-18T04:19:40;17.30;99.90
43227;DHT22;28839;52.404;9.808;2023-09-18T04:26:33;17.20;99.90
43227;DHT22;28839;52.404;9.808;2023-09-18T04:33:28;17.20;99.90
43227;DHT22;28839;52.404;9.808;2023-09-18T04:40:22;17.20;99.90
43227;DHT22;28839;52.404;9.808;2023-09-18T04:47:17;17.20;99.90
43227;DHT22;28839;52.404;9.808;2023-09-18T04:54:13;17.10;99.90
43227;DHT22;28839;52.404;9.808;2023-09-18T05:01:08;17.20;99.90
43227;DHT22;28839;52.404;9.808;2023-09-18T05:08:04;17.30;99.90
43227;DHT22;28839;52.404;9.808;2023-09-18T05:15:01;17.30;99.90
43227;DHT22;28839;52.404;9.808;2023-09-18T05:21:57;17.30;99.90
43227;DHT22;28839;52.404;9.808;2023-09-18T05:28:50;17.40;99.90
43227;DHT22;28839;52.404;9.808;2023-09-18T05:35:47;17.50;99.90
43227;DHT22;28839;52.404;9.808;2023-09-18T05:42:42;17.50;99.90
43227;DHT22;28839;52.404;9.808;2023-09-18T05:49:36;17.50;99.90
43227;DHT22;28839;52.404;9.808;2023-09-18T05:56:31;17.60;99.90
43227;DHT22;28839;52.404;9.808;2023-09-18T06:03:25;17.80;99.90
43227;DHT22;28839;52.404;9.808;2023-09-18T06:10:18;18.10;99.90
43227;DHT22;28839;52.404;9.808;2023-09-18T06:17:14;18.20;99.90
43227;DHT22;28839;52.404;9.808;2023-09-18T06:24:08;18.30;99.90
43227;DHT22;28839;52.404;9.808;2023-09-18T06:31:02;18.40;99.90
43227;DHT22;28839;52.404;9.808;2023-09-18T06:37:57;18.60;99.90
43227;DHT22;28839;52.404;9.808;2023-09-18T06:44:52;18.60;99.90
43227;DHT22;28839;52.404;9.808;2023-09-18T06:51:46;18.80;99.90
43227;DHT22;28839;52.404;9.808;2023-09-18T06:58:41;19.00;99.90
43227;DHT22;28839;52.404;9.808;2023-09-18T07:05:35;19.30;99.90
43227;DHT22;28839;52.404;9.808;2023-09-18T07:12:29;19.30;99.90
43227;DHT22;28839;52.404;9.808;2023-09-18T07:19:25;19.40;99.90
43227;DHT22;28839;52.404;9.808;2023-09-18T07:26:19;19.50;99.90
43227;DHT22;28839;52.404;9.808;2023-09-18T07:33:12;19.60;99.90
43227;DHT22;28839;52.404;9.808;2023-09-18T07:40:10;19.70;99.90
43227;DHT22;28839;52.404;9.808;2023-09-18T07:47:03;20.10;99.90
43227;DHT22;28839;52.404;9.808;2023-09-18T07:53:57;20.30;99.90
43227;DHT22;28839;52.404;9.808;2023-09-18T08:00:53;20.60;99.90
43227;DHT22;28839;52.404;9.808;2023-09-18T08:07:46;20.70;99.90
43227;DHT22;28839;52.404;9.808;2023-09-18T08:14:41;21.10;99.90
43227;DHT22;28839;52.404;9.808;2023-09-18T08:21:36;21.50;99.90
43227;DHT22;28839;52.404;9.808;2023-09-18T08:28:30;21.90;99.90
43227;DHT22;28839;52.404;9.808;2023-09-18T08:35:24;22.20;99.90
43227;DHT22;28839;52.404;9.808;2023-09-18T08:42:22;22.20;99.90
43227;DHT22;28839;52.404;9.808;2023-09-18T08:49:16;22.20;99.90
43227;DHT22;28839;52.404;9.808;2023-09-18T08:56:11;22.20;99.90
43227;DHT22;28839;52.404;9.808;2023-09-18T09:03:07;22.30;99.90
43227;DHT22;28839;52.404;9.808;2023-09-18T09:10:02;22.30;99.90
43227;DHT22;28839;52.404;9.808;2023-09-18T09:16:56;22.40;99.90
43227;DHT22;28839;52.404;9.808;2023-09-18T09:23:52;22.80;99.90
43227;DHT22;28839;52.404;9.808;2023-09-18T09:30:46;22.90;99.90
43227;DHT22;28839;52.404;9.808;2023-09-18T09:37:39;22.90;99.90
43227;DHT22;28839;52.404;9.808;2023-09-18T09:44:35;22.90;99.90
43227;DHT22;28839;52.404;9.808;2023-09-18T09:51:28;23.00;99.90
43227;DHT22;28839;52.404;9.808;2023-09-18T09:58:26;23.10;99.90
43227;DHT22;28839;52.404;9.808;2023-09-18T10:05:26;22.90;99.90
43227;DHT22;28839;52.404;9.808;2023-09-18T10:12:20;22.90;99.90
43227;DHT22;28839;52.404;9.808;2023-09-18T10:19:18;22.80;99.90
43227;DHT22;28839;52.404;9.808;2023-09-18T10:26:18;23.00;99.90
43227;DHT22;28839;52.404;9.808;2023-09-18T10:33:16;23.10;99.90
43227;DHT22;28839;52.404;9.808;2023-09-18T10:40:10;23.00;99.90
43227;DHT22;28839;52.404;9.808;2023-09-18T10:47:06;22.90;99.90
43227;DHT22;28839;52.404;9.808;2023-09-18T10:54:01;23.10;99.90
43227;DHT22;28839;52.404;9.808;2023-09-18T11:00:56;23.20;99.90
43227;DHT22;28839;52.404;9.808;2023-09-18T11:07:51;23.10;99.90
43227;DHT22;28839;52.404;9.808;2023-09-18T11:15:05;23.00;99.90
43227;DHT22;28839;52.404;9.808;2023-09-18T11:22:06;23.00;99.90
43227;DHT22;28839;52.404;9.808;2023-09-18T11:29:03;23.20;99.90
43227;DHT22;28839;52.404;9.808;2023-09-18T11:36:02;23.00;99.90
43227;DHT22;28839;52.404;9.808;2023-09-18T11:50:12;23.20;99.90
43227;DHT22;28839;52.404;9.808;2023-09-18T11:57:07;23.20;99.90
43227;DHT22;28839;52.404;9.808;2023-09-18T12:04:00;23.10;99.90
43227;DHT22;28839;52.404;9.808;2023-09-18T12:10:56;23.00;99.90
43227;DHT22;28839;52.404;9.808;2023-09-18T12:17:53;23.10;99.90
43227;DHT22;28839;52.404;9.808;2023-09-18T12:24:47;23.10;99.90
43227;DHT22;28839;52.404;9.808;2023-09-18T12:31:42;23.20;99.90
43227;DHT22;28839;52.404;9.808;2023-09-18T12:38:37;23.10;99.90
43227;DHT22;28839;52.404;9.808;2023-09-18T12:45:31;23.10;99.90
43227;DHT22;28839;52.404;9.808;2023-09-18T12:52:26;23.20;99.90
43227;DHT22;28839;52.404;9.808;2023-09-18T12:59:21;23.00;99.90
43227;DHT22;28839;52.404;9.808;2023-09-18T13:06:15;23.00;99.90
43227;DHT22;28839;52.404;9.808;2023-09-18T13:13:17;23.00;99.90
43227;DHT22;28839;52.404;9.808;2023-09-18T13:20:12;22.90;99.90
43227;DHT22;28839;52.404;9.808;2023-09-18T13:27:06;22.80;99.90
43227;DHT22;28839;52.404;9.808;2023-09-18T13:34:01;22.70;99.90
43227;DHT22;28839;52.404;9.808;2023-09-18T13:40:58;22.80;99.90
43227;DHT22;28839;52.404;9.808;2023-09-18T13:47:51;22.80;99.90
43227;DHT22;28839;52.404;9.808;2023-09-18T13:54:48;22.80;99.90
43227;DHT22;28839;52.404;9.808;2023-09-18T14:01:43;23.00;99.90
43227;DHT22;28839;52.404;9.808;2023-09-18T14:08:37;23.00;99.90
43227;DHT22;28839;52.404;9.808;2023-09-18T14:15:34;22.90;99.90
43227;DHT22;28839;52.404;9.808;2023-09-18T14:22:27;23.00;99.90
43227;DHT22;28839;52.404;9.808;2023-09-18T14:29:21;22.80;99.90
43227;DHT22;28839;52.404;9.808;2023-09-18T14:36:16;22.90;99.90
43227;DHT22;28839;52.404;9.808;2023-09-18T14:43:10;22.80;99.90
43227;DHT22;28839;52.404;9.808;2023-09-18T14:50:04;22.80;99.90
43227;DHT22;28839;52.404;9.808;2023-09-18T14:57:00;22.80;99.90
43227;DHT22;28839;52.404;9.808;2023-09-18T15:03:54;22.70;99.90
43227;DHT22;28839;52.404;9.808;2023-09-18T15:10:47;22.60;99.90
43227;DHT22;28839;52.404;9.808;2023-09-18T15:17:43;22.60;99.90
43227;DHT22;28839;52.404;9.808;2023-09-18T15:24:37;22.60;99.90
43227;DHT22;28839;52.404;9.808;2023-09-18T15:31:31;22.50;99.90
43227;DHT22;28839;52.404;9.808;2023-09-18T15:38:26;22.50;99.90
43227;DHT22;28839;52.404;9.808;2023-09-18T15:45:20;22.60;99.90
43227;DHT22;28839;52.404;9.808;2023-09-18T15:52:13;22.80;99.90
43227;DHT22;28839;52.404;9.808;2023-09-18T15:59:09;22.70;99.90
43227;DHT22;28839;52.404;9.808;2023-09-18T16:06:04;22.60;99.90
43227;DHT22;28839;52.404;9.808;2023-09-18T16:12:58;22.50;99.90
43227;DHT22;28839;52.404;9.808;2023-09-18T16:19:53;22.40;99.90
43227;DHT22;28839;52.404;9.808;2023-09-18T16:26:47;22.30;99.90
43227;DHT22;28839;52.404;9.808;2023-09-18T16:33:41;22.30;99.90
43227;DHT22;28839;52.404;9.808;2023-09-18T16:40:36;22.20;99.90
43227;DHT22;28839;52.404;9.808;2023-09-18T16:47:30;22.10;99.90
43227;DHT22;28839;52.404;9.808;2023-09-18T16:54:25;22.10;99.90
43227;DHT22;28839;52.404;9.808;2023-09-18T17:01:20;22.00;99.90
43227;DHT22;28839;52.404;9.808;2023-09-18T17:08:14;22.00;99.90
43227;DHT22;28839;52.404;9.808;2023-09-18T17:15:08;21.90;99.90
43227;DHT22;28839;52.404;9.808;2023-09-18T17:22:04;21.70;99.90
43227;DHT22;28839;52.404;9.808;2023-09-18T17:28:58;21.60;99.90
43227;DHT22;28839;52.404;9.808;2023-09-18T17:35:51;21.50;99.90
43227;DHT22;28839;52.404;9.808;2023-09-18T17:42:47;21.50;99.90
43227;DHT22;28839;52.404;9.808;2023-09-18T17:49:41;21.30;99.90
43227;DHT22;28839;52.404;9.808;2023-09-18T17:56:35;21.20;99.90
43227;DHT22;28839;52.404;9.808;2023-09-18T18:03:31;21.10;99.90
43227;DHT22;28839;52.404;9.808;2023-09-18T18:10:25;21.20;99.90
43227;DHT22;28839;52.404;9.808;2023-09-18T18:17:19;21.10;99.90
43227;DHT22;28839;52.404;9.808;2023-09-18T18:24:14;21.20;99.90
43227;DHT22;28839;52.404;9.808;2023-09-18T18:31:08;21.20;99.90
43227;DHT22;28839;52.404;9.808;2023-09-18T18:38:02;21.20;99.90
43227;DHT22;28839;52.404;9.808;2023-09-18T18:44:58;21.20;99.90
43227;DHT22;28839;52.404;9.808;2023-09-18T18:51:52;21.10;99.90
43227;DHT22;28839;52.404;9.808;2023-09-18T18:58:46;20.90;99.90
43227;DHT22;28839;52.404;9.808;2023-09-18T19:05:43;21.00;99.90
43227;DHT22;28839;52.404;9.808;2023-09-18T19:12:38;20.90;99.90
43227;DHT22;28839;52.404;9.808;2023-09-18T19:19:32;20.80;99.90
43227;DHT22;28839;52.404;9.808;2023-09-18T19:26:27;20.80;99.90
43227;DHT22;28839;52.404;9.808;2023-09-18T19:33:21;20.70;99.90
43227;DHT22;28839;52.404;9.808;2023-09-18T19:40:15;20.60;99.90
43227;DHT22;28839;52.404;9.808;2023-09-18T19:47:11;20.50;99.90
43227;DHT22;28839;52.404;9.808;2023-09-18T19:54:04;20.50;99.90
43227;DHT22;28839;52.404;9.808;2023-09-18T20:00:59;20.50;99.90
43227;DHT22;28839;52.404;9.808;2023-09-18T20:07:54;20.50;99.90
43227;DHT22;28839;52.404;9.808;2023-09-18T20:14:48;20.50;99.90
43227;DHT22;28839;52.404;9.808;2023-09-18T20:21:44;20.30;99.90
43227;DHT22;28839;52.404;9.808;2023-09-18T20:28:40;20.30;99.90
43227;DHT22;28839;52.404;9.808;2023-09-18T20:35:34;20.20;99.90
43227;DHT22;28839;52.404;9.808;2023-09-18T20:42:27;20.10;99.90
43227;DHT22;28839;52.404;9.808;2023-09-18T20:49:23;20.10;99.90
43227;DHT22;28839;52.404;9.808;2023-09-18T20:56:17;19.90;99.90
43227;DHT22;28839;52.404;9.808;2023-09-18T21:03:11;19.70;99.90
43227;DHT22;28839;52.404;9.808;2023-09-18T21:10:06;19.20;99.90
43227;DHT22;28839;52.404;9.808;2023-09-18T21:17:01;18.60;99.90
43227;DHT22;28839;52.404;9.808;2023-09-18T21:23:56;17.80;99.90
43227;DHT22;28839;52.404;9.808;2023-09-18T21:30:51;17.20;99.90
43227;DHT22;28839;52.404;9.808;2023-09-18T21:37:44;17.10;99.90
43227;DHT22;28839;52.404;9.808;2023-09-18T21:44:39;16.80;99.90
43227;DHT22;28839;52.404;9.808;2023-09-18T21:51:34;16.60;99.90
43227;DHT22;28839;52.404;9.808;2023-09-18T21:58:31;16.70;99.90
43227;DHT22;28839;52.404;9.808;2023-09-18T22:05:24;16.70;99.90
43227;DHT22;28839;52.404;9.808;2023-09-18T22:12:19;16.60;99.90
43227;DHT22;28839;52.404;9.808;2023-09-18T22:19:13;16.40;99.90
43227;DHT22;28839;52.404;9.808;2023-09-18T22:26:07;16.50;99.90
43227;DHT22;28839;52.404;9.808;2023-09-18T22:33:02;16.50;99.90
43227;DHT22;28839;52.404;9.808;2023-09-18T23:01:02;16.20;99.90
43227;DHT22;28839;52.404;9.808;2023-09-18T23:07:58;16.10;99.90
43227;DHT22;28839;52.404;9.808;2023-09-18T23:14:55;16.10;99.90
43227;DHT22;28839;52.404;9.808;2023-09-18T23:21:50;16.10;99.90
43227;DHT22;28839;52.404;9.808;2023-09-18T23:28:44;16.20;99.90
43227;DHT22;28839;52.404;9.808;2023-09-18T23:35:39;16.20;99.90
43227;DHT22;28839;52.404;9.808;2023-09-18T23:42:34;16.40;99.90
43227;DHT22;28839;52.404;9.808;2023-09-18T23:49:29;16.40;99.90
43227;DHT22;28839;52.404;9.808;2023-09-18T23:56:24;16.30;99.90
